createdAt,value
2019-06-10T00:02:53.526Z,99.9
2019-06-10T00:08:05.722Z,99.9
2019-06-10T00:13:11.707Z,99.9
2019-06-10T00:18:46.706Z,99.9
2019-06-10T00:23:14.605Z,99.9
2019-06-10T00:28:21.703Z,99.9
2019-06-10T00:33:26.593Z,99.9
2019-06-10T00:38:34.329Z,99.9
2019-06-10T00:43:41.115Z,99.9
2019-06-10T00:48:46.491Z,99.9
2019-06-10T00:53:54.019Z,99.9
2019-06-10T00:59:02.409Z,99.9
2019-06-10T01:04:17.066Z,99.9
2019-06-10T01:09:16.769Z,99.9
2019-06-10T01:14:24.270Z,99.9
2019-06-10T01:19:31.892Z,99.9
2019-06-10T01:24:36.937Z,99.9
2019-06-10T01:29:44.749Z,99.9
2019-06-10T01:34:52.578Z,99.9
2019-06-10T01:39:57.778Z,99.9
2019-06-10T01:45:03.852Z,99.9
2019-06-10T01:50:17.186Z,99.9
2019-06-10T01:55:22.587Z,99.9
2019-06-10T02:00:27.829Z,99.9
2019-06-10T02:05:25.696Z,99.9
2019-06-10T02:10:32.933Z,99.9
2019-06-10T02:15:37.641Z,99.9
2019-06-10T02:20:43.909Z,99.9
2019-06-10T02:25:51.169Z,99.9
2019-06-10T02:31:02.499Z,99.9
2019-06-10T02:35:58.148Z,99.9
2019-06-10T02:41:07.028Z,99.9
2019-06-10T02:46:31.262Z,99.9
2019-06-10T02:51:35.406Z,99.9
2019-06-10T02:56:37.142Z,99.9
2019-06-10T03:01:38.812Z,99.9
2019-06-10T03:06:45.997Z,99.9
2019-06-10T03:11:39.473Z,99.9
2019-06-10T03:16:35.549Z,99.9
2019-06-10T03:21:42.707Z,99.9
2019-06-10T03:26:48.261Z,99.9
2019-06-10T03:31:58.046Z,99.9
2019-06-10T03:37:05.139Z,99.9
2019-06-10T03:42:12.473Z,99.9
2019-06-10T03:47:21.117Z,99.9
2019-06-10T03:52:32.382Z,99.9
2019-06-10T03:57:32.957Z,99.9
2019-06-10T04:02:32.547Z,99.9
2019-06-10T04:07:37.380Z,99.9
2019-06-10T04:12:45.188Z,99.9
2019-06-10T04:17:49.922Z,99.9
2019-06-10T04:22:54.790Z,99.9
2019-06-10T04:27:58.550Z,99.9
2019-06-10T04:33:04.960Z,99.9
2019-06-10T04:38:09.662Z,99.9
2019-06-10T04:43:15.141Z,99.9
2019-06-10T04:48:25.907Z,99.9
2019-06-10T04:53:29.418Z,99.9
2019-06-10T04:58:34.319Z,99.9
2019-06-10T05:03:33.928Z,99.9
2019-06-10T05:08:37.442Z,99.9
2019-06-10T05:13:45.277Z,99.9
2019-06-10T05:18:55.861Z,99.9
2019-06-10T05:23:52.995Z,99.9
2019-06-10T05:28:58.025Z,99.9
2019-06-10T05:34:05.161Z,99.9
2019-06-10T05:39:12.129Z,99.9
2019-06-10T05:44:17.858Z,99.9
2019-06-10T05:49:30.977Z,99.9
2019-06-10T05:54:35.450Z,99.9
2019-06-10T05:59:35.862Z,99.9
2019-06-10T06:04:36.938Z,99.9
2019-06-10T06:09:36.186Z,99.9
2019-06-10T06:14:43.483Z,99.9
2019-06-10T06:19:48.258Z,99.9
2019-06-10T06:24:55.110Z,99.9
2019-06-10T06:30:02.790Z,99.9
2019-06-10T06:35:04.802Z,99.9
2019-06-10T06:40:09.655Z,99.9
2019-06-10T06:45:15.293Z,99.9
2019-06-10T06:50:25.758Z,99.9
2019-06-10T06:55:23.249Z,99.9
2019-06-10T07:01:14.488Z,98.6
2019-06-10T07:05:35.208Z,98.8
2019-06-10T07:10:34.636Z,97.9
2019-06-10T07:15:34.412Z,96.1
2019-06-10T07:20:36.620Z,96
2019-06-10T07:25:47.285Z,94.9
2019-06-10T07:30:56.827Z,94.4
2019-06-10T07:35:47.147Z,92.7
2019-06-10T07:40:52.847Z,92.7
2019-06-10T07:45:58.720Z,93.3
2019-06-10T07:51:05.371Z,92.5
2019-06-10T07:56:13.611Z,91.3
2019-06-10T08:01:18.994Z,91.3
2019-06-10T08:06:25.504Z,90.5
2019-06-10T08:11:33.063Z,90.3
2019-06-10T08:21:53.495Z,89.6
2019-06-10T08:31:55.948Z,88.2
2019-06-10T08:37:06.238Z,88
2019-06-10T08:42:13.224Z,88
2019-06-10T08:47:19.064Z,85.3
2019-06-10T08:52:26.929Z,85.3
2019-06-10T08:57:34.335Z,85.1
2019-06-10T09:02:53.855Z,83.8
2019-06-10T09:07:56.672Z,82.8
2019-06-10T09:12:56.872Z,80.4
2019-06-10T09:17:58.390Z,78.5
2019-06-10T09:23:26.553Z,78.3
2019-06-10T09:28:04.926Z,76.6
2019-06-10T09:33:10.109Z,76.7
2019-06-10T09:38:16.984Z,73.2
2019-06-10T09:43:25.145Z,71.3
2019-06-10T09:48:30.220Z,71.4
2019-06-10T09:54:06.931Z,68.9
2019-06-10T09:58:55.050Z,67.5
2019-06-10T10:04:02.217Z,68
2019-06-10T10:09:03.200Z,70.5
2019-06-10T10:13:59.778Z,70.6
2019-06-10T10:19:07.960Z,72.5
2019-06-10T10:24:17.265Z,68.3
2019-06-10T10:29:22.012Z,67.7
2019-06-10T10:34:27.954Z,66.6
2019-06-10T10:39:35.261Z,70.9
2019-06-10T10:44:40.286Z,71.1
2019-06-10T10:49:48.897Z,69.4
2019-06-10T10:54:57.999Z,69
2019-06-10T11:00:05.752Z,67.2
2019-06-10T11:05:12.756Z,67.3
2019-06-10T11:10:17.830Z,66.7
2019-06-10T11:15:24.964Z,67.9
2019-06-10T11:20:30.062Z,67.8
2019-06-10T11:25:36.270Z,63
2019-06-10T11:30:43.534Z,63
2019-06-10T11:35:56.570Z,65.2
2019-06-10T11:41:01.041Z,67.8
2019-06-10T11:46:09.476Z,63.2
2019-06-10T11:51:07.331Z,63.9
2019-06-10T11:56:15.001Z,64.8
2019-06-10T12:01:22.635Z,64.5
2019-06-10T12:06:28.138Z,62.8
2019-06-10T12:11:36.600Z,63.4
2019-06-10T12:17:50.770Z,61.4
2019-06-10T12:21:46.266Z,61.8
2019-06-10T12:27:01.112Z,65.2
2019-06-10T12:32:08.580Z,66.1
2019-06-10T12:37:17.718Z,66.8
2019-06-10T12:42:16.527Z,67.7
2019-06-10T12:47:23.960Z,67.8
2019-06-10T12:52:28.930Z,67.7
2019-06-10T12:57:35.374Z,67.6
2019-06-10T13:02:42.580Z,68
2019-06-10T13:07:48.446Z,68
2019-06-10T13:12:57.829Z,70.1
2019-06-10T13:18:19.358Z,70
2019-06-10T13:23:36.258Z,67.3
2019-06-10T13:28:11.298Z,66.5
2019-06-10T13:33:17.333Z,68.6
2019-06-10T13:38:27.577Z,66.4
2019-06-10T13:43:34.600Z,66.4
2019-06-10T13:48:39.813Z,65.9
2019-06-10T13:53:39.798Z,66.2
2019-06-10T13:58:48.230Z,68.2
2019-06-10T14:03:56.289Z,69.6
2019-06-10T14:09:12.376Z,70.8
2019-06-10T14:14:19.052Z,71.5
2019-06-10T14:19:18.489Z,70.6
2019-06-10T14:24:25.514Z,68.1
2019-06-10T14:29:30.684Z,68.3
2019-06-10T14:34:35.568Z,68.6
2019-06-10T14:39:43.216Z,68
2019-06-10T14:44:49.390Z,67.4
2019-06-10T14:49:55.708Z,66.7
2019-06-10T14:55:07.158Z,66.6
2019-06-10T15:00:07.537Z,66.3
2019-06-10T15:05:05.212Z,65
2019-06-10T15:10:17.857Z,65.5
2019-06-10T15:15:17.056Z,65.4
2019-06-10T15:20:24.718Z,65.5
2019-06-10T15:25:53.130Z,64.7
2019-06-10T15:30:38.882Z,64.7
2019-06-10T15:35:45.463Z,64.4
2019-06-10T15:40:52.753Z,64.6
2019-06-10T15:45:58.032Z,64.3
2019-06-10T15:51:05.860Z,65.6
2019-06-10T15:56:56.453Z,65.9
2019-06-10T16:01:25.376Z,65.9
2019-06-10T16:06:15.982Z,66
2019-06-10T16:11:28.612Z,67.7
2019-06-10T16:16:24.893Z,69.3
2019-06-10T16:21:29.685Z,69.3
2019-06-10T16:26:38.058Z,70.2
2019-06-10T16:31:44.532Z,70.1
2019-06-10T16:36:49.377Z,69.9
2019-06-10T16:41:54.855Z,71.5
2019-06-10T16:47:00.054Z,71.4
2019-06-10T16:52:05.880Z,73
2019-06-10T16:57:14.321Z,73.5
2019-06-10T17:02:25.404Z,74.8
2019-06-10T17:07:26.781Z,74.9
2019-06-10T17:12:28.380Z,74.8
2019-06-10T17:17:29.859Z,74.2
2019-06-10T17:22:33.705Z,74.8
2019-06-10T17:27:33.498Z,75.5
2019-06-10T17:32:38.337Z,75.4
2019-06-10T17:37:45.847Z,77
2019-06-10T17:42:53.100Z,77
2019-06-10T17:47:56.839Z,78
2019-06-10T17:53:05.210Z,79.9
2019-06-10T17:58:09.047Z,79.9
2019-06-10T18:03:15.924Z,81.1
2019-06-10T18:08:19.642Z,81.1
2019-06-10T18:13:29.859Z,82.6
2019-06-10T18:18:28.316Z,83.2
2019-06-10T18:23:36.017Z,84
2019-06-10T18:29:12.804Z,84.6
2019-06-10T18:33:47.936Z,84.6
2019-06-10T18:38:55.163Z,86
2019-06-10T18:44:02.170Z,86
2019-06-10T18:49:08.110Z,90
2019-06-10T18:54:15.336Z,92
2019-06-10T18:59:23.691Z,92.6
2019-06-10T19:04:34.941Z,92.8
2019-06-10T19:09:39.164Z,93.2
2019-06-10T19:14:42.797Z,93.5
2019-06-10T19:19:43.850Z,93.8
2019-06-10T19:24:46.133Z,94.1
2019-06-10T19:29:56.080Z,94
2019-06-10T19:34:53.987Z,94.4
2019-06-10T19:40:02.524Z,94.3
2019-06-10T19:45:12.341Z,94.4
2019-06-10T19:50:07.420Z,94.4
2019-06-10T19:55:15.517Z,94.8
2019-06-10T20:00:23.044Z,94.8
2019-06-10T20:05:27.979Z,94.9
2019-06-10T20:10:37.866Z,95.9
2019-06-10T20:15:52.330Z,96.4
2019-06-10T20:20:53.754Z,96.5
2019-06-10T20:25:52.673Z,96.7
2019-06-10T20:30:58.038Z,96.7
2019-06-10T20:36:27.689Z,97.4
2019-06-10T20:41:15.270Z,98
2019-06-10T20:46:20.093Z,98
2019-06-10T20:51:29.272Z,99
2019-06-10T20:56:35.519Z,99.7
2019-06-10T21:01:51.175Z,99.9
2019-06-10T21:06:53.898Z,99.9
2019-06-10T21:11:58.852Z,99.9
2019-06-10T21:17:05.913Z,99.9
2019-06-10T21:22:12.939Z,99.9
2019-06-10T21:27:17.848Z,99.9
2019-06-10T21:32:22.746Z,99.9
2019-06-10T21:37:27.672Z,99.9
2019-06-10T21:42:33.635Z,99.9
2019-06-10T21:47:38.366Z,99.9
2019-06-10T21:52:50.948Z,99.9
2019-06-10T21:57:54.851Z,99.9
2019-06-10T22:03:01.817Z,99.9
2019-06-10T22:07:58.918Z,99.9
2019-06-10T22:13:05.821Z,99.9
2019-06-10T22:18:13.307Z,99.9
2019-06-10T22:23:18.242Z,99.9
2019-06-10T22:28:24.764Z,99.9
2019-06-10T22:33:29.686Z,99.9
2019-06-10T22:38:35.471Z,99.9
2019-06-10T22:43:42.533Z,99.9
2019-06-10T22:48:51.019Z,99.9
2019-06-10T22:54:04.574Z,99.9
2019-06-10T22:59:03.666Z,99.9
2019-06-10T23:04:08.957Z,99.9
2019-06-10T23:09:14.733Z,99.9
2019-06-10T23:14:19.774Z,99.9
2019-06-10T23:19:29.087Z,99.9
2019-06-10T23:24:35.001Z,99.9
2019-06-10T23:29:38.338Z,99.9
2019-06-10T23:34:44.923Z,99.9
2019-06-10T23:39:50.601Z,99.9
2019-06-10T23:44:59.134Z,99.9
2019-06-10T23:50:06.858Z,99.9
2019-06-10T23:55:15.630Z,99.9
